F/V Oceanis — FHLH — position and weather

sailwx.info

Track history (hours):
 
Tides and Currents Weather Stations Pressure Air Temp Water Temp Dewpoint Dewpoint Depression Visibility Wind Speed Wind Dir Waves Ship Positions

F/V Oceanis

Last reported at 2017-Mar-23 19:05 UTC. Time now 2017-Mar-28 12:05 UTC.
Position N 44°39' W 001°09'.

Type: Other ship. MMSI: 228385000.

Date/timePositionNaut miles runAvg speedWind from/ knotsBaromVisibWave heightAir tempDewpointWater temp
2017-Mar-23 19:05N 44°39' W 001°09'0 0.0
2017-Mar-23 18:33N 44°39' W 001°09'0 0.0
2017-Mar-23 17:33N 44°39' W 001°09'0 0.0
2017-Mar-23 16:33N 44°39' W 001°09'0 0.0
2017-Mar-23 15:33N 44°39' W 001°09'0 0.0
2017-Mar-23 14:33N 44°39' W 001°09'0 0.0
2017-Mar-23 13:33N 44°39' W 001°09'0 0.0
2017-Mar-23 12:33N 44°39' W 001°09'0 0.0
2017-Mar-23 11:33N 44°39' W 001°09'0 0.0
2017-Mar-23 10:33N 44°39' W 001°09'  
2017-Mar-15 18:33N 44°39' W 001°09'0 0.0
2017-Mar-15 17:33N 44°39' W 001°09'0 0.1
2017-Mar-15 16:33N 44°39' W 001°09'2 1.8
2017-Mar-15 15:33N 44°40' W 001°11'7 6.5
2017-Mar-15 14:33N 44°36' W 001°18'9 9.1
2017-Mar-15 13:33N 44°45' W 001°22'9 8.9
2017-Mar-15 12:33N 44°53' W 001°25'9 1.0
2017-Mar-15 03:33N 45°01' W 001°33'  
Track history (hours):
 
Tides and Currents Weather Stations Pressure Air Temp Water Temp Dewpoint Dewpoint Depression Visibility Wind Speed Wind Dir Waves Ship Positions

F/V Oceanis

Last reported at 2017-Mar-23 19:05 UTC. Time now 2017-Mar-28 12:05 UTC.
Position N 44°39' W 001°09'.

Type: Other ship. MMSI: 228385000.

Date/timePositionNaut miles runAvg speedWind from/ knotsBaromVisibWave heightAir tempDewpointWater temp
2017-Mar-23 19:05N 44°39' W 001°09'0 0.0
2017-Mar-23 18:33N 44°39' W 001°09'0 0.0
2017-Mar-23 17:33N 44°39' W 001°09'0 0.0
2017-Mar-23 16:33N 44°39' W 001°09'0 0.0
2017-Mar-23 15:33N 44°39' W 001°09'0 0.0
2017-Mar-23 14:33N 44°39' W 001°09'0 0.0
2017-Mar-23 13:33N 44°39' W 001°09'0 0.0
2017-Mar-23 12:33N 44°39' W 001°09'0 0.0
2017-Mar-23 11:33N 44°39' W 001°09'0 0.0
2017-Mar-23 10:33N 44°39' W 001°09'  
2017-Mar-15 18:33N 44°39' W 001°09'0 0.0
2017-Mar-15 17:33N 44°39' W 001°09'0 0.1
2017-Mar-15 16:33N 44°39' W 001°09'2 1.8
2017-Mar-15 15:33N 44°40' W 001°11'7 6.5
2017-Mar-15 14:33N 44°36' W 001°18'9 9.1
2017-Mar-15 13:33N 44°45' W 001°22'9 8.9
2017-Mar-15 12:33N 44°53' W 001°25'9 1.0
2017-Mar-15 03:33N 45°01' W 001°33'  

Dump ship's entire track history